Time;durP1;ratioP1;P1;durP2;ratioP2;P2;SDS_P1;SDS_P2;PMS_P1;PMS_P2;Temp;Humidity;BMP_temperature;BMP_pressure;BME280_temperature;BME280_humidity;BME280_pressure;Samples;Min_cycle;Max_cycle;Signal;HPM_P1;HPM_P2
2022/10/04 00:35:56;;;;;;;10.10;7.43;;;;;;;18.81;100.00;100851.66;5073613;28;20398;-84
2022/10/04 00:38:26;;;;;;;9.15;6.90;;;;;;;18.92;100.00;100862.13;5073366;28;20036;-84
2022/10/04 00:41:03;;;;;;;11.00;6.90;;;;;;;18.90;100.00;100848.13;5073590;28;20104;-84
2022/10/04 00:43:36;;;;;;;11.10;7.20;;;;;;;18.86;100.00;100841.44;5073585;28;20392;-85
2022/10/04 00:46:14;;;;;;;8.18;6.40;;;;;;;18.88;100.00;100844.78;5073522;28;20020;-84
2022/10/04 00:48:57;;;;;;;8.07;6.25;;;;;;;18.92;100.00;100838.19;5073203;28;20021;-85
2022/10/04 00:51:29;;;;;;;6.35;5.60;;;;;;;18.93;100.00;100831.84;5073330;28;20398;-86
2022/10/04 00:54:06;;;;;;;11.98;7.03;;;;;;;18.75;100.00;100833.59;5073352;28;20025;-86
2022/10/04 00:56:54;;;;;;;13.13;6.47;;;;;;;18.83;100.00;100823.09;5073308;28;20040;-86
2022/10/04 00:59:46;;;;;;;9.35;5.93;;;;;;;18.99;100.00;100817.13;5073169;28;20036;-86
2022/10/04 01:02:35;;;;;;;7.82;5.57;;;;;;;18.87;100.00;100813.00;5073177;28;20060;-86
2022/10/04 01:05:03;;;;;;;7.95;5.47;;;;;;;18.83;100.00;100817.78;5073016;28;20033;-86
2022/10/04 01:07:34;;;;;;;7.10;4.90;;;;;;;18.88;100.00;100810.19;5072333;28;20036;-86
2022/10/04 01:10:11;;;;;;;7.40;4.90;;;;;;;18.86;100.00;100806.84;5073017;28;20428;-86
2022/10/04 01:12:51;;;;;;;6.18;4.78;;;;;;;18.83;100.00;100797.31;5072900;28;20025;-86
2022/10/04 01:15:28;;;;;;;9.40;5.95;;;;;;;18.78;100.00;100809.38;5071641;28;20016;-86
2022/10/04 01:18:11;;;;;;;5.90;5.28;;;;;;;18.91;100.00;100804.56;5072596;28;20055;-86
2022/10/04 01:21:01;;;;;;;5.43;4.45;;;;;;;18.77;100.00;100818.34;5072986;28;20033;-86
2022/10/04 01:23:50;;;;;;;4.90;3.85;;;;;;;18.88;100.00;100820.84;5062342;28;20037;-86
2022/10/04 01:26:33;;;;;;;6.07;4.60;;;;;;;18.81;100.00;100825.91;5072551;28;20412;-86
2022/10/04 01:29:11;;;;;;;5.97;3.67;;;;;;;18.81;100.00;100820.56;5072668;28;20024;-86
2022/10/04 01:31:40;;;;;;;4.95;3.95;;;;;;;18.80;100.00;100818.91;5072711;28;20024;-86
2022/10/04 01:34:06;;;;;;;4.10;3.38;;;;;;;18.76;100.00;100819.31;5072636;28;20020;-86
2022/10/04 01:36:33;;;;;;;6.95;4.13;;;;;;;18.59;100.00;100816.44;5072369;28;20032;-86
2022/10/04 01:38:59;;;;;;;6.18;3.92;;;;;;;18.69;100.00;100818.25;5072442;28;20033;-86
2022/10/04 01:41:52;;;;;;;6.53;4.30;;;;;;;18.72;100.00;100820.59;5072455;28;20074;-88
2022/10/04 01:44:30;;;;;;;7.05;4.05;;;;;;;18.62;100.00;100821.50;5069523;28;20478;-86
2022/10/04 01:47:00;;;;;;;6.43;3.90;;;;;;;18.61;100.00;100816.31;5072322;28;20070;-86
2022/10/04 01:49:29;;;;;;;5.88;3.80;;;;;;;18.63;100.00;100809.84;5072198;28;20024;-86
2022/10/04 01:52:16;;;;;;;7.93;3.67;;;;;;;18.60;100.00;100804.84;5072284;28;20489;-86
2022/10/04 01:54:46;;;;;;;6.40;4.10;;;;;;;18.57;100.00;100796.31;5072169;28;20111;-86
2022/10/04 01:57:20;;;;;;;4.70;3.30;;;;;;;18.71;100.00;100797.66;5070799;28;20465;-86
2022/10/04 02:00:00;;;;;;;8.55;4.05;;;;;;;18.53;100.00;100794.94;5071986;28;20028;-86
2022/10/04 02:02:28;;;;;;;9.90;4.45;;;;;;;18.47;100.00;100784.88;5072139;28;20031;-86
2022/10/04 02:04:56;;;;;;;8.27;3.13;;;;;;;18.69;100.00;100783.66;5071974;28;20119;-86
2022/10/04 02:07:25;;;;;;;8.32;3.75;;;;;;;18.67;100.00;100775.00;5072181;28;20033;-86
2022/10/04 02:09:57;;;;;;;5.38;3.80;;;;;;;18.77;100.00;100778.44;5071890;28;20139;-86
2022/10/04 02:12:23;;;;;;;8.63;3.50;;;;;;;18.69;100.00;100773.03;5071939;28;20521;-86
2022/10/04 02:14:52;;;;;;;6.78;3.75;;;;;;;18.47;100.00;100764.44;5071942;28;20040;-86
2022/10/04 02:17:24;;;;;;;7.20;2.90;;;;;;;18.49;100.00;100762.47;5072282;28;20028;-86
2022/10/04 02:19:51;;;;;;;4.85;2.70;;;;;;;18.30;100.00;100760.72;5070417;28;20044;-86
2022/10/04 02:22:17;;;;;;;4.57;3.08;;;;;;;18.42;100.00;100748.09;5071868;28;20033;-86
2022/10/04 02:24:46;;;;;;;6.63;3.25;;;;;;;18.34;100.00;100754.13;5071895;28;20413;-86
2022/10/04 02:27:13;;;;;;;4.07;3.25;;;;;;;18.45;100.00;100755.78;5071754;28;20083;-86
2022/10/04 02:29:39;;;;;;;5.50;3.15;;;;;;;18.53;100.00;100758.53;5071841;28;20099;-86
2022/10/04 02:34:53;;;;;;;6.35;2.53;;;;;;;18.48;100.00;100750.16;5071890;28;20488;-86
2022/10/04 02:37:22;;;;;;;6.18;3.63;;;;;;;18.58;100.00;100750.97;5071635;28;20024;-86
2022/10/04 02:39:57;;;;;;;6.00;2.88;;;;;;;18.57;100.00;100749.28;5071668;28;20104;-86
2022/10/04 02:43:07;;;;;;;6.00;3.10;;;;;;;18.76;100.00;100742.16;5071572;28;20091;-86
2022/10/04 02:45:49;;;;;;;4.28;2.40;;;;;;;18.68;100.00;100734.09;5049013;28;20029;-86
2022/10/04 02:48:24;;;;;;;;;;;;;;;18.60;100.00;100724.19;5049762;28;20073;-85
2022/10/04 02:50:52;;;;;;;3.83;2.45;;;;;;;18.39;100.00;100712.00;5064460;28;19909;-86
2022/10/04 02:53:25;;;;;;;4.80;2.70;;;;;;;18.35;100.00;100709.81;5071625;28;20058;-86
2022/10/04 02:55:53;;;;;;;5.10;2.17;;;;;;;18.19;100.00;100711.25;5071461;28;20028;-86
2022/10/04 02:58:22;;;;;;;8.55;2.25;;;;;;;18.22;100.00;100705.63;5071407;28;20025;-86
2022/10/04 03:00:59;;;;;;;3.42;1.88;;;;;;;18.28;100.00;100698.91;5071625;28;20021;-86
2022/10/04 03:03:28;;;;;;;2.67;1.83;;;;;;;18.35;100.00;100707.97;5071592;28;20047;-86
2022/10/04 03:06:05;;;;;;;6.80;2.15;;;;;;;18.50;100.00;100710.13;5071476;28;20073;-86
2022/10/04 03:08:35;;;;;;;3.28;1.90;;;;;;;18.28;100.00;100706.88;5071336;28;20036;-86
2022/10/04 03:11:03;;;;;;;;;;;;;;;18.17;100.00;100715.88;5071895;28;20052;-86
2022/10/04 03:13:30;;;;;;;3.47;1.52;;;;;;;18.35;100.00;100707.97;5071566;28;19965;-86
2022/10/04 03:15:55;;;;;;;2.72;1.85;;;;;;;18.18;100.00;100712.22;5071411;28;20520;-86
2022/10/04 03:18:21;;;;;;;4.28;1.63;;;;;;;18.13;100.00;100709.19;5071262;28;20036;-86
2022/10/04 03:20:47;;;;;;;3.45;1.52;;;;;;;18.21;100.00;100711.94;5071180;28;20069;-86
2022/10/04 03:23:16;;;;;;;1.48;1.35;;;;;;;18.38;100.00;100705.03;5071337;28;20025;-86
2022/10/04 03:25:52;;;;;;;3.40;1.98;;;;;;;18.44;100.00;100706.22;5071478;28;20021;-86
2022/10/04 03:28:18;;;;;;;4.32;1.80;;;;;;;18.30;100.00;100709.38;5071047;28;20435;-86
2022/10/04 03:30:46;;;;;;;3.35;1.50;;;;;;;18.38;100.00;100714.81;5072126;28;20021;-86
2022/10/04 03:33:24;;;;;;;5.28;1.98;;;;;;;17.94;100.00;100710.09;5074869;28;20086;-85
2022/10/04 03:35:52;;;;;;;2.72;1.70;;;;;;;18.06;100.00;100707.25;5074925;28;20082;-86
2022/10/04 03:38:19;;;;;;;3.88;1.70;;;;;;;17.76;100.00;100707.31;5074657;28;20051;-87
2022/10/04 03:40:55;;;;;;;2.75;1.67;;;;;;;18.09;100.00;100712.25;5074883;28;20025;-86
2022/10/04 03:43:26;;;;;;;1.63;1.45;;;;;;;18.15;100.00;100701.91;5074596;28;20031;-87
2022/10/04 03:45:52;;;;;;;3.95;1.60;;;;;;;17.97;100.00;100698.31;5074544;28;20389;-86
2022/10/04 03:48:28;;;;;;;2.00;1.40;;;;;;;18.14;100.00;100702.88;5074351;28;20023;-87
2022/10/04 03:50:54;;;;;;;3.35;1.90;;;;;;;18.01;100.00;100699.72;5074675;28;20024;-86
2022/10/04 03:53:42;;;;;;;4.90;1.65;;;;;;;18.39;100.00;100709.34;5074508;28;20024;-87
2022/10/04 03:56:14;;;;;;;2.70;1.60;;;;;;;18.19;100.00;100702.47;5074415;28;20032;-86
2022/10/04 03:58:40;;;;;;;2.95;2.28;;;;;;;17.80;100.00;100690.09;5074211;28;20060;-86
2022/10/04 04:01:27;;;;;;;5.18;2.20;;;;;;;17.83;100.00;100703.13;5074381;28;20107;-86
2022/10/04 04:04:17;;;;;;;5.32;2.10;;;;;;;18.04;100.00;100699.44;5074377;28;20490;-87
2022/10/04 04:06:49;;;;;;;4.90;2.42;;;;;;;18.20;100.00;100682.84;5074402;28;20029;-87
2022/10/04 04:09:31;;;;;;;3.85;2.40;;;;;;;18.18;100.00;100687.47;5074358;28;20024;-86
2022/10/04 04:11:58;;;;;;;7.65;2.55;;;;;;;17.99;100.00;100691.03;5074152;28;20025;-87
2022/10/04 04:14:26;;;;;;;3.58;2.20;;;;;;;17.67;100.00;100684.25;5074153;28;20072;-87
2022/10/04 04:16:53;;;;;;;3.97;1.98;;;;;;;17.87;100.00;100676.28;5073991;28;20029;-87
2022/10/04 04:19:24;;;;;;;2.15;1.60;;;;;;;18.13;100.00;100687.94;5074000;28;20417;-87
2022/10/04 04:21:54;;;;;;;1.90;1.65;;;;;;;18.16;100.00;100682.31;5073816;28;20026;-87
2022/10/04 04:24:30;;;;;;;1.88;1.25;;;;;;;17.96;100.00;100680.72;5072815;28;20036;-87
2022/10/04 04:27:02;;;;;;;3.20;1.52;;;;;;;17.66;100.00;100685.25;5073790;28;20024;-87
2022/10/04 04:29:40;;;;;;;4.50;1.75;;;;;;;17.71;100.00;100687.47;5073572;28;20060;-87
2022/10/04 04:32:16;;;;;;;1.15;0.95;;;;;;;17.66;100.00;100695.06;5073771;28;20031;-87
2022/10/04 04:34:56;;;;;;;3.83;1.20;;;;;;;17.78;100.00;100688.59;5073735;28;20024;-87
2022/10/04 04:37:21;;;;;;;2.33;1.17;;;;;;;17.82;100.00;100685.47;5073566;28;20063;-87
2022/10/04 04:39:54;;;;;;;1.63;1.40;;;;;;;17.80;100.00;100676.81;5073647;28;20068;-87
2022/10/04 04:42:32;;;;;;;2.45;1.60;;;;;;;17.82;100.00;100672.19;5072502;28;20025;-87
2022/10/04 04:45:01;;;;;;;6.03;2.60;;;;;;;17.77;100.00;100677.13;5072372;28;20048;-87
2022/10/04 04:47:46;;;;;;;7.25;1.98;;;;;;;17.60;100.00;100678.69;5073501;28;20492;-87
2022/10/04 04:50:15;;;;;;;2.92;1.60;;;;;;;17.78;100.00;100681.44;5073294;28;20107;-87
2022/10/04 04:52:46;;;;;;;2.83;1.35;;;;;;;17.49;100.00;100678.84;5073442;28;20029;-87
2022/10/04 04:55:21;;;;;;;4.93;1.50;;;;;;;17.62;100.00;100674.06;5073189;28;20033;-87
2022/10/04 04:57:50;;;;;;;4.38;1.60;;;;;;;17.69;100.00;100676.97;5072274;28;20033;-86
2022/10/04 05:00:19;;;;;;;2.38;1.10;;;;;;;17.67;100.00;100686.91;5072433;28;20506;-87
2022/10/04 05:02:56;;;;;;;2.03;1.25;;;;;;;18.08;100.00;100678.72;5072763;28;20064;-87
2022/10/04 05:05:24;;;;;;;4.45;1.27;;;;;;;17.74;100.00;100682.72;5073118;28;20027;-87
2022/10/04 05:08:19;;;;;;;2.05;1.25;;;;;;;17.98;100.00;100668.97;5072993;28;20123;-87
2022/10/04 05:10:58;;;;;;;4.15;1.40;;;;;;;18.16;100.00;100674.34;5072873;28;20020;-87
2022/10/04 05:13:34;;;;;;;3.33;1.33;;;;;;;18.09;99.97;100675.94;5072909;28;20028;-87
2022/10/04 05:16:00;;;;;;;3.22;1.50;;;;;;;18.06;99.57;100676.19;5073047;28;20547;-87
2022/10/04 05:18:29;;;;;;;2.38;1.90;;;;;;;17.93;100.00;100668.56;5072785;28;20051;-87
2022/10/04 05:20:57;;;;;;;5.00;1.80;;;;;;;18.08;100.00;100673.41;5072909;28;20024;-88
2022/10/04 05:23:23;;;;;;;2.88;1.70;;;;;;;18.11;99.54;100676.63;5072767;28;20478;-87
2022/10/04 05:25:49;;;;;;;3.40;1.80;;;;;;;17.66;100.00;100671.97;5072877;28;20166;-87
2022/10/04 05:28:17;;;;;;;2.50;1.70;;;;;;;17.78;100.00;100668.16;5072494;28;20390;-87
2022/10/04 05:30:55;;;;;;;2.95;1.92;;;;;;;18.05;100.00;100666.56;5072692;28;20036;-87
2022/10/04 05:33:35;;;;;;;3.20;2.08;;;;;;;18.13;100.00;100672.00;5072577;28;20489;-87
2022/10/04 05:36:08;;;;;;;5.30;2.80;;;;;;;18.10;100.00;100664.28;5072482;28;20025;-87
2022/10/04 05:38:39;;;;;;;3.20;2.15;;;;;;;18.10;100.00;100658.16;5072293;28;20028;-87
2022/10/04 05:41:08;;;;;;;8.40;2.90;;;;;;;18.10;100.00;100656.31;5072292;28;20382;-87
2022/10/04 05:43:33;;;;;;;3.95;2.65;;;;;;;17.86;100.00;100659.50;5072455;28;20056;-87
2022/10/04 05:46:20;;;;;;;4.20;2.53;;;;;;;17.73;100.00;100654.50;5072391;28;20482;-87
2022/10/04 05:48:54;;;;;;;7.35;2.50;;;;;;;17.59;100.00;100646.97;5072228;28;20085;-87
2022/10/04 05:51:32;;;;;;;4.38;2.70;;;;;;;17.72;100.00;100647.50;5072241;28;20029;-87
2022/10/04 05:54:02;;;;;;;6.57;3.38;;;;;;;17.58;100.00;100646.16;5071925;28;20116;-87
2022/10/04 05:56:40;;;;;;;7.68;3.78;;;;;;;17.69;100.00;100638.97;5072041;28;20031;-87
2022/10/04 05:59:34;;;;;;;3.72;3.10;;;;;;;17.90;100.00;100629.00;5071917;28;20020;-87
2022/10/04 06:02:02;;;;;;;5.55;3.70;;;;;;;17.71;100.00;100619.25;5072245;28;20025;-87
2022/10/04 06:04:37;;;;;;;4.53;3.95;;;;;;;17.38;100.00;100624.13;5072075;28;20028;-87
2022/10/04 06:07:15;;;;;;;4.78;4.15;;;;;;;17.27;100.00;100621.63;5070766;28;20025;-87
2022/10/04 06:10:09;;;;;;;5.30;3.70;;;;;;;17.26;100.00;100619.97;5071830;28;20025;-87
2022/10/04 06:12:59;;;;;;;8.07;4.35;;;;;;;17.40;100.00;100614.19;5071926;28;20496;-87
2022/10/04 06:15:36;;;;;;;5.10;3.67;;;;;;;17.47;100.00;100619.75;5072139;28;20028;-87
2022/10/04 06:18:14;;;;;;;5.15;3.72;;;;;;;17.23;100.00;100613.09;5071663;28;20028;-87
2022/10/04 06:20:56;;;;;;;4.88;4.07;;;;;;;17.62;100.00;100620.16;5071778;28;20027;-87
2022/10/04 06:23:25;;;;;;;6.82;3.95;;;;;;;17.40;100.00;100621.31;5072083;28;20020;-87
2022/10/04 06:25:57;;;;;;;7.40;5.03;;;;;;;17.46;100.00;100620.75;5071923;28;20048;-87
2022/10/04 06:28:42;;;;;;;5.63;4.20;;;;;;;17.76;100.00;100627.63;5071817;28;20127;-87
2022/10/04 06:31:20;;;;;;;5.82;3.88;;;;;;;17.99;100.00;100627.28;5071716;28;20047;-87
2022/10/04 06:33:46;;;;;;;11.82;4.60;;;;;;;17.67;100.00;100635.63;5071731;28;20470;-87
2022/10/04 06:36:39;;;;;;;5.47;4.18;;;;;;;17.81;100.00;100630.69;5071598;28;20035;-87
2022/10/04 06:39:28;;;;;;;6.43;4.07;;;;;;;17.83;100.00;100649.13;5071559;28;20021;-87
2022/10/04 06:42:32;;;;;;;5.93;4.65;;;;;;;17.49;100.00;100641.69;5071768;28;20020;-86
2022/10/04 06:45:24;;;;;;;9.75;4.82;;;;;;;17.22;100.00;100645.09;5071465;28;20021;-87
2022/10/04 06:48:25;;;;;;;7.25;4.88;;;;;;;17.67;100.00;100640.94;5068394;28;20067;-87
2022/10/04 06:51:16;;;;;;;7.75;4.72;;;;;;;17.41;100.00;100637.09;5067467;28;20390;-87
2022/10/04 06:54:02;;;;;;;5.27;4.30;;;;;;;17.51;100.00;100638.91;5071851;28;20359;-87
2022/10/04 06:56:31;;;;;;;6.72;4.53;;;;;;;17.83;100.00;100631.44;5071526;28;20028;-84
2022/10/04 06:59:06;;;;;;;8.02;4.28;;;;;;;17.95;100.00;100631.22;5071562;28;20390;-84
2022/10/04 07:01:38;;;;;;;7.30;4.70;;;;;;;18.25;100.00;100632.75;5071375;28;20021;-84
2022/10/04 07:04:19;;;;;;;10.15;4.78;;;;;;;18.17;100.00;100622.88;5070231;28;20042;-84
2022/10/04 07:07:25;;;;;;;5.47;4.38;;;;;;;17.78;100.00;100620.34;5055456;28;20552;-85
2022/10/04 07:09:56;;;;;;;7.28;4.50;;;;;;;17.91;100.00;100616.56;5055043;28;20052;-84
2022/10/04 07:12:23;;;;;;;6.05;4.55;;;;;;;18.08;100.00;100620.25;5057827;28;20420;-84
2022/10/04 07:14:54;;;;;;;7.70;3.92;;;;;;;18.24;100.00;100625.75;5075250;28;20032;-85
2022/10/04 07:17:31;;;;;;;7.32;4.18;;;;;;;18.58;100.00;100622.47;5074287;28;20041;-85
2022/10/04 07:20:00;;;;;;;4.53;3.97;;;;;;;18.26;100.00;100622.97;5075087;28;20028;-85
2022/10/04 07:23:13;;;;;;;6.07;3.58;;;;;;;18.20;100.00;100619.91;5070228;28;20378;-85
2022/10/04 07:25:47;;;;;;;6.65;3.88;;;;;;;18.14;100.00;100625.81;5050399;28;20044;-86
2022/10/04 07:31:22;;;;;;;12.20;5.32;;;;;;;18.79;100.00;100630.16;5071842;28;20108;-85
2022/10/04 07:34:14;;;;;;;4.57;3.13;;;;;;;18.75;100.00;100626.13;5072632;28;20028;-85
2022/10/04 07:36:44;;;;;;;5.97;3.22;;;;;;;18.75;100.00;100628.78;5074427;28;20024;-85
2022/10/04 07:39:14;;;;;;;3.88;3.03;;;;;;;18.80;100.00;100621.22;5074866;28;20048;-85
2022/10/04 07:41:48;;;;;;;5.72;2.88;;;;;;;18.98;100.00;100616.72;5074533;28;20031;-85
2022/10/04 07:44:37;;;;;;;5.00;2.78;;;;;;;18.75;100.00;100620.81;5076586;28;20457;-85
2022/10/04 07:47:16;;;;;;;6.28;2.50;;;;;;;18.41;100.00;100621.47;5073904;28;20045;-85
2022/10/04 07:49:42;;;;;;;4.45;2.53;;;;;;;18.53;100.00;100617.59;5074062;28;20028;-85
2022/10/04 07:52:35;;;;;;;2.95;2.03;;;;;;;18.82;100.00;100619.25;5074109;28;20009;-85
2022/10/04 07:55:27;;;;;;;6.38;2.85;;;;;;;18.54;100.00;100621.94;5074289;28;20056;-85
2022/10/04 07:58:06;;;;;;;3.28;2.10;;;;;;;18.54;100.00;100632.59;5073962;28;20107;-85
2022/10/04 08:00:59;;;;;;;8.95;2.25;;;;;;;18.50;100.00;100630.34;5073148;28;20107;-85
2022/10/04 08:03:52;;;;;;;6.80;2.92;;;;;;;18.95;100.00;100635.63;5073437;28;20021;-85
2022/10/04 08:06:23;;;;;;;4.47;2.45;;;;;;;18.89;100.00;100636.25;5073765;28;20020;-85
2022/10/04 08:09:06;;;;;;;4.55;2.35;;;;;;;18.46;100.00;100621.00;5071977;28;20041;-85
2022/10/04 08:11:42;;;;;;;5.20;2.50;;;;;;;19.36;100.00;100627.16;5074100;28;20036;-85
2022/10/04 08:14:49;;;;;;;3.13;2.35;;;;;;;18.90;100.00;100632.63;5074061;28;20029;-85
2022/10/04 08:17:50;;;;;;;4.72;2.22;;;;;;;19.00;100.00;100638.69;5061294;28;20389;-85
2022/10/04 08:20:38;;;;;;;4.32;2.00;;;;;;;19.11;100.00;100634.94;5066398;28;20462;-85
2022/10/04 08:23:32;;;;;;;3.80;2.03;;;;;;;19.66;100.00;100631.16;5067200;28;20052;-85
2022/10/04 08:25:57;;;;;;;3.63;1.90;;;;;;;19.11;100.00;100631.44;5073917;28;20019;-85
2022/10/04 08:31:50;;;;;;;5.65;1.60;;;;;;;19.11;100.00;100644.75;5072040;28;20035;-85
2022/10/04 08:34:28;;;;;;;2.55;0.82;;;;;;;19.68;100.00;100637.16;5073834;28;20028;-85
2022/10/04 08:37:08;;;;;;;1.27;0.80;;;;;;;19.03;100.00;100635.72;5073476;28;20431;-85
2022/10/04 08:40:10;;;;;;;1.85;0.90;;;;;;;19.22;100.00;100636.53;5073505;28;20024;-85
2022/10/04 08:42:47;;;;;;;3.05;1.00;;;;;;;19.53;100.00;100622.75;5073735;28;20024;-85
2022/10/04 08:45:36;;;;;;;3.53;1.67;;;;;;;20.21;100.00;100614.78;5073614;28;20025;-85
2022/10/04 08:48:32;;;;;;;2.35;0.90;;;;;;;20.36;100.00;100630.16;5073346;28;20036;-85
2022/10/04 08:51:04;;;;;;;1.35;0.60;;;;;;;20.56;100.00;100630.72;5073349;28;20466;-85
2022/10/04 08:53:47;;;;;;;2.53;0.70;;;;;;;20.57;100.00;100627.03;5073453;28;20063;-85
2022/10/04 08:56:38;;;;;;;0.70;0.60;;;;;;;20.50;100.00;100618.84;5073266;28;20032;-85
2022/10/04 08:59:51;;;;;;;0.75;0.30;;;;;;;20.50;100.00;100613.53;5073103;28;20021;-85
2022/10/04 09:02:45;;;;;;;0.73;0.40;;;;;;;20.49;99.80;100609.16;5068443;28;20033;-85
2022/10/04 09:05:35;;;;;;;0.38;0.20;;;;;;;20.56;99.41;100610.19;5073024;28;20027;-85
2022/10/04 09:08:42;;;;;;;0.88;0.20;;;;;;;20.68;98.79;100610.75;5073236;28;20024;-85
2022/10/04 09:11:53;;;;;;;1.25;0.40;;;;;;;20.26;99.23;100595.63;5072887;28;20025;-85
2022/10/04 09:14:47;;;;;;;0.47;0.17;;;;;;;20.49;99.37;100597.69;5066267;28;20497;-85
2022/10/04 09:17:18;;;;;;;1.55;0.30;;;;;;;21.00;96.67;100579.72;5068268;28;20501;-85
2022/10/04 09:19:55;;;;;;;1.08;0.20;;;;;;;22.43;89.54;100574.38;5060211;28;20105;-85
2022/10/04 09:23:02;;;;;;;2.88;0.10;;;;;;;21.95;91.13;100592.34;5052708;28;20446;-85
2022/10/04 09:25:48;;;;;;;0.43;0.20;;;;;;;22.55;89.17;100599.75;5051372;28;20422;-85
2022/10/04 09:28:35;;;;;;;2.47;0.13;;;;;;;23.06;86.48;100609.91;5051923;28;20025;-85
2022/10/04 09:31:27;;;;;;;0.73;0.13;;;;;;;22.32;88.53;100606.91;5052553;28;20025;-85
2022/10/04 09:33:52;;;;;;;1.27;0.20;;;;;;;22.65;86.69;100602.19;5048246;28;20082;-85
2022/10/04 09:36:30;;;;;;;2.40;0.20;;;;;;;22.69;87.16;100602.63;5052522;28;20378;-85
2022/10/04 09:39:44;;;;;;;1.20;0.20;;;;;;;26.63;70.25;100607.44;5052493;28;20053;-85
2022/10/04 09:42:31;;;;;;;0.95;0.20;;;;;;;27.42;62.34;100605.78;5069333;28;20043;-85
2022/10/04 09:45:27;;;;;;;0.55;0.20;;;;;;;24.78;67.40;100620.41;5072422;28;20040;-85
2022/10/04 09:48:23;;;;;;;1.80;0.22;;;;;;;24.39;71.75;100624.34;5072247;28;20032;-85
2022/10/04 09:51:08;;;;;;;0.75;0.20;;;;;;;23.96;73.42;100624.22;5072199;28;20025;-85
2022/10/04 09:53:43;;;;;;;3.28;0.30;;;;;;;22.80;77.21;100634.34;5072401;28;20474;-85
2022/10/04 09:56:30;;;;;;;2.42;0.40;;;;;;;22.57;79.41;100632.50;5072573;28;20099;-85
2022/10/04 09:59:34;;;;;;;0.82;0.20;;;;;;;22.96;78.21;100617.31;5071863;28;20482;-85
2022/10/04 10:01:59;;;;;;;1.65;0.10;;;;;;;23.04;77.80;100621.81;5065372;28;20509;-85
2022/10/04 10:04:30;;;;;;;0.80;0.30;;;;;;;22.81;79.72;100630.69;5072239;28;20024;-85
2022/10/04 10:07:14;;;;;;;0.47;0.40;;;;;;;22.90;81.09;100610.84;5072051;28;20037;-85
2022/10/04 10:15:41;;;;;;;1.92;0.35;;;;;;;22.13;83.77;100600.13;5071921;28;20410;-85
2022/10/04 10:18:22;;;;;;;0.50;0.30;;;;;;;22.47;82.10;100594.44;5071909;28;20028;-84
2022/10/04 10:21:08;;;;;;;0.55;0.20;;;;;;;23.13;78.52;100584.06;5072033;28;20021;-85
2022/10/04 10:23:44;;;;;;;2.95;0.52;;;;;;;23.50;76.47;100570.78;5071804;28;20584;-85
2022/10/04 10:26:21;;;;;;;1.92;0.40;;;;;;;24.81;70.34;100569.00;5071812;28;20063;-85
2022/10/04 10:29:20;;;;;;;1.50;0.38;;;;;;;24.75;68.38;100569.78;5071880;28;20127;-85
2022/10/04 10:32:01;;;;;;;3.42;0.35;;;;;;;23.61;72.44;100564.97;5071748;28;20028;-84
2022/10/04 10:34:51;;;;;;;1.35;0.38;;;;;;;24.22;71.83;100561.19;5071783;28;20028;-85
2022/10/04 10:37:29;;;;;;;1.65;0.60;;;;;;;24.86;68.36;100553.16;5071659;28;20025;-85
2022/10/04 10:40:15;;;;;;;1.63;0.30;;;;;;;23.99;69.49;100553.28;5071653;28;20029;-85
2022/10/04 10:42:56;;;;;;;1.50;0.40;;;;;;;23.26;72.88;100562.03;5075206;28;20028;-85
2022/10/04 10:45:55;;;;;;;2.03;0.43;;;;;;;23.41;71.56;100570.03;5056671;28;20470;-84
2022/10/04 10:48:50;;;;;;;1.88;0.20;;;;;;;23.04;73.22;100569.06;5071448;28;20262;-84
2022/10/04 10:51:29;;;;;;;5.78;0.32;;;;;;;22.49;74.89;100576.38;5075578;28;20036;-84
2022/10/04 10:54:46;;;;;;;5.28;0.57;;;;;;;22.77;74.76;100575.84;5075630;28;20316;-84
2022/10/04 10:57:46;;;;;;;3.03;0.60;;;;;;;22.41;77.08;100595.13;5075610;28;20040;-84
2022/10/04 11:00:21;;;;;;;3.53;0.40;;;;;;;22.33;76.73;100587.16;5075766;28;20036;-84
2022/10/04 11:03:15;;;;;;;1.25;0.40;;;;;;;22.25;77.00;100605.94;5075125;28;20396;-85
2022/10/04 11:05:56;;;;;;;1.80;0.45;;;;;;;21.89;78.59;100593.88;5075629;28;20021;-85
2022/10/04 11:08:50;;;;;;;6.55;1.17;;;;;;;22.63;77.72;100600.69;5075016;28;20021;-85
2022/10/04 11:11:38;;;;;;;1.30;0.30;;;;;;;22.18;79.83;100595.09;5075172;28;20107;-85
2022/10/04 11:14:40;;;;;;;0.68;0.20;;;;;;;22.41;77.43;100589.78;5075099;28;20024;-85
2022/10/04 11:17:43;;;;;;;3.28;0.75;;;;;;;21.62;82.52;100588.97;5074896;28;20029;-85
2022/10/04 11:20:31;;;;;;;1.05;0.47;;;;;;;21.97;82.22;100582.31;5074643;28;20504;-85
2022/10/04 11:23:30;;;;;;;2.83;0.30;;;;;;;22.22;81.02;100587.56;5075039;28;20021;-85
2022/10/04 11:26:38;;;;;;;1.65;0.30;;;;;;;22.64;78.54;100572.91;5074855;28;20021;-85
2022/10/04 11:29:30;;;;;;;3.88;0.50;;;;;;;22.27;80.26;100563.81;5074600;28;20047;-85
2022/10/04 11:32:01;;;;;;;2.67;0.40;;;;;;;21.90;82.75;100558.13;5074657;28;20020;-84
2022/10/04 11:34:37;;;;;;;1.35;0.28;;;;;;;21.55;82.25;100544.25;5074548;28;20021;-85
2022/10/04 11:37:22;;;;;;;1.92;0.50;;;;;;;21.86;82.10;100553.28;5074759;28;20025;-85
2022/10/04 11:40:14;;;;;;;2.13;0.63;;;;;;;22.18;80.92;100546.97;5074690;28;20374;-85
2022/10/04 11:43:14;;;;;;;0.35;0.20;;;;;;;22.85;77.94;100542.78;5074757;28;20017;-85
2022/10/04 11:46:07;;;;;;;1.50;0.40;;;;;;;22.64;77.54;100552.34;5074651;28;20036;-85
2022/10/04 11:48:54;;;;;;;1.92;0.52;;;;;;;22.05;79.22;100568.91;5072964;28;20028;-85
2022/10/04 11:52:07;;;;;;;1.00;0.30;;;;;;;22.09;79.31;100580.09;5073984;28;20028;-85
2022/10/04 11:55:03;;;;;;;3.10;0.50;;;;;;;21.48;81.98;100566.47;5063646;28;20497;-85
2022/10/04 11:57:40;;;;;;;3.33;0.40;;;;;;;21.75;82.48;100571.38;5073378;28;20086;-84
2022/10/04 12:00:15;;;;;;;4.95;0.47;;;;;;;21.37;83.35;100564.97;5073077;28;20103;-84
